sensor_id;sensor_type;location;lat;lon;timestamp;P1;durP1;ratioP1;P2;durP2;ratioP2
13279;SDS011;6708;49.814;8.652;2022-11-20T00:01:26;13.90;;;12.50;;
13279;SDS011;6708;49.814;8.652;2022-11-20T00:03:58;14.87;;;13.27;;
13279;SDS011;6708;49.814;8.652;2022-11-20T00:06:27;13.83;;;12.43;;
13279;SDS011;6708;49.814;8.652;2022-11-20T00:08:57;11.87;;;10.23;;
13279;SDS011;6708;49.814;8.652;2022-11-20T00:11:28;11.97;;;10.20;;
13279;SDS011;6708;49.814;8.652;2022-11-20T00:14:03;11.27;;;10.23;;
13279;SDS011;6708;49.814;8.652;2022-11-20T00:16:38;12.50;;;11.40;;
13279;SDS011;6708;49.814;8.652;2022-11-20T00:19:07;12.83;;;11.53;;
13279;SDS011;6708;49.814;8.652;2022-11-20T00:21:35;11.67;;;10.53;;
13279;SDS011;6708;49.814;8.652;2022-11-20T00:24:08;13.07;;;11.67;;
13279;SDS011;6708;49.814;8.652;2022-11-20T00:26:40;11.40;;;10.30;;
13279;SDS011;6708;49.814;8.652;2022-11-20T00:29:09;11.83;;;10.30;;
13279;SDS011;6708;49.814;8.652;2022-11-20T00:31:40;11.77;;;10.67;;
13279;SDS011;6708;49.814;8.652;2022-11-20T00:34:09;11.00;;;10.03;;
13279;SDS011;6708;49.814;8.652;2022-11-20T00:36:39;10.70;;;9.70;;
13279;SDS011;6708;49.814;8.652;2022-11-20T00:39:10;11.07;;;9.97;;
13279;SDS011;6708;49.814;8.652;2022-11-20T00:41:38;10.77;;;9.87;;
13279;SDS011;6708;49.814;8.652;2022-11-20T00:44:08;11.47;;;10.47;;
13279;SDS011;6708;49.814;8.652;2022-11-20T00:46:37;11.77;;;10.77;;
13279;SDS011;6708;49.814;8.652;2022-11-20T00:49:09;12.27;;;11.17;;
13279;SDS011;6708;49.814;8.652;2022-11-20T00:51:37;12.07;;;10.97;;
13279;SDS011;6708;49.814;8.652;2022-11-20T00:54:06;11.17;;;10.07;;
13279;SDS011;6708;49.814;8.652;2022-11-20T00:56:35;12.07;;;9.87;;
13279;SDS011;6708;49.814;8.652;2022-11-20T00:59:03;10.93;;;9.93;;
13279;SDS011;6708;49.814;8.652;2022-11-20T01:01:34;16.60;;;11.57;;
13279;SDS011;6708;49.814;8.652;2022-11-20T01:04:04;10.13;;;9.23;;
13279;SDS011;6708;49.814;8.652;2022-11-20T01:06:36;11.67;;;10.47;;
13279;SDS011;6708;49.814;8.652;2022-11-20T01:09:06;12.30;;;9.67;;
13279;SDS011;6708;49.814;8.652;2022-11-20T01:11:36;9.20;;;8.27;;
13279;SDS011;6708;49.814;8.652;2022-11-20T01:14:07;10.13;;;9.20;;
13279;SDS011;6708;49.814;8.652;2022-11-20T01:16:42;9.23;;;8.53;;
13279;SDS011;6708;49.814;8.652;2022-11-20T01:19:17;10.40;;;9.47;;
13279;SDS011;6708;49.814;8.652;2022-11-20T01:21:50;10.43;;;9.53;;
13279;SDS011;6708;49.814;8.652;2022-11-20T01:24:21;9.43;;;8.63;;
13279;SDS011;6708;49.814;8.652;2022-11-20T01:26:50;10.47;;;9.47;;
13279;SDS011;6708;49.814;8.652;2022-11-20T01:29:20;10.70;;;9.67;;
13279;SDS011;6708;49.814;8.652;2022-11-20T01:31:50;10.20;;;9.20;;
13279;SDS011;6708;49.814;8.652;2022-11-20T01:34:20;9.70;;;8.80;;
13279;SDS011;6708;49.814;8.652;2022-11-20T01:36:52;9.20;;;8.30;;
13279;SDS011;6708;49.814;8.652;2022-11-20T01:39:21;9.83;;;8.93;;
13279;SDS011;6708;49.814;8.652;2022-11-20T01:41:51;9.77;;;8.87;;
13279;SDS011;6708;49.814;8.652;2022-11-20T01:44:43;9.27;;;8.47;;
13279;SDS011;6708;49.814;8.652;2022-11-20T01:47:16;8.80;;;8.13;;
13279;SDS011;6708;49.814;8.652;2022-11-20T01:49:50;8.80;;;8.10;;
13279;SDS011;6708;49.814;8.652;2022-11-20T01:52:24;10.23;;;9.33;;
13279;SDS011;6708;49.814;8.652;2022-11-20T01:54:58;9.47;;;8.67;;
13279;SDS011;6708;49.814;8.652;2022-11-20T01:57:30;8.87;;;8.13;;
13279;SDS011;6708;49.814;8.652;2022-11-20T02:00:01;9.97;;;9.13;;
13279;SDS011;6708;49.814;8.652;2022-11-20T02:02:37;9.47;;;8.57;;
13279;SDS011;6708;49.814;8.652;2022-11-20T02:05:12;9.20;;;8.40;;
13279;SDS011;6708;49.814;8.652;2022-11-20T02:07:47;9.53;;;8.67;;
13279;SDS011;6708;49.814;8.652;2022-11-20T02:10:16;9.83;;;9.03;;
13279;SDS011;6708;49.814;8.652;2022-11-20T02:12:45;9.03;;;8.23;;
13279;SDS011;6708;49.814;8.652;2022-11-20T02:15:26;8.50;;;7.70;;
13279;SDS011;6708;49.814;8.652;2022-11-20T02:17:55;9.13;;;8.33;;
13279;SDS011;6708;49.814;8.652;2022-11-20T02:20:23;8.77;;;7.97;;
13279;SDS011;6708;49.814;8.652;2022-11-20T02:22:56;8.53;;;7.83;;
13279;SDS011;6708;49.814;8.652;2022-11-20T02:25:29;8.67;;;7.97;;
13279;SDS011;6708;49.814;8.652;2022-11-20T02:27:59;9.07;;;8.17;;
13279;SDS011;6708;49.814;8.652;2022-11-20T02:30:28;9.70;;;8.90;;
13279;SDS011;6708;49.814;8.652;2022-11-20T02:32:57;10.73;;;9.73;;
13279;SDS011;6708;49.814;8.652;2022-11-20T02:35:39;11.67;;;10.57;;
13279;SDS011;6708;49.814;8.652;2022-11-20T02:38:09;9.67;;;8.77;;
13279;SDS011;6708;49.814;8.652;2022-11-20T02:40:41;11.03;;;9.47;;
13279;SDS011;6708;49.814;8.652;2022-11-20T02:43:10;10.63;;;9.63;;
13279;SDS011;6708;49.814;8.652;2022-11-20T02:45:38;11.13;;;10.13;;
13279;SDS011;6708;49.814;8.652;2022-11-20T02:48:08;10.90;;;9.90;;
13279;SDS011;6708;49.814;8.652;2022-11-20T02:50:37;10.60;;;9.70;;
13279;SDS011;6708;49.814;8.652;2022-11-20T02:53:06;11.27;;;10.20;;
13279;SDS011;6708;49.814;8.652;2022-11-20T02:55:35;10.83;;;9.57;;
13279;SDS011;6708;49.814;8.652;2022-11-20T02:58:07;12.43;;;11.20;;
13279;SDS011;6708;49.814;8.652;2022-11-20T03:00:35;11.73;;;10.53;;
13279;SDS011;6708;49.814;8.652;2022-11-20T03:03:04;12.97;;;11.77;;
13279;SDS011;6708;49.814;8.652;2022-11-20T03:05:33;12.47;;;11.17;;
13279;SDS011;6708;49.814;8.652;2022-11-20T03:08:01;13.97;;;11.00;;
13279;SDS011;6708;49.814;8.652;2022-11-20T03:10:30;13.10;;;11.80;;
13279;SDS011;6708;49.814;8.652;2022-11-20T03:13:02;38.47;;;15.10;;
13279;SDS011;6708;49.814;8.652;2022-11-20T03:15:35;15.10;;;13.50;;
13279;SDS011;6708;49.814;8.652;2022-11-20T03:18:04;15.60;;;14.00;;
13279;SDS011;6708;49.814;8.652;2022-11-20T03:20:33;15.47;;;13.97;;
13279;SDS011;6708;49.814;8.652;2022-11-20T03:23:02;17.50;;;13.23;;
13279;SDS011;6708;49.814;8.652;2022-11-20T03:25:30;14.40;;;12.87;;
13279;SDS011;6708;49.814;8.652;2022-11-20T03:27:59;13.63;;;12.27;;
13279;SDS011;6708;49.814;8.652;2022-11-20T03:30:27;12.80;;;11.50;;
13279;SDS011;6708;49.814;8.652;2022-11-20T03:32:58;13.70;;;12.40;;
13279;SDS011;6708;49.814;8.652;2022-11-20T03:35:28;13.97;;;12.63;;
13279;SDS011;6708;49.814;8.652;2022-11-20T03:37:57;13.63;;;12.27;;
13279;SDS011;6708;49.814;8.652;2022-11-20T03:40:26;14.73;;;13.20;;
13279;SDS011;6708;49.814;8.652;2022-11-20T03:42:54;14.60;;;13.17;;
13279;SDS011;6708;49.814;8.652;2022-11-20T03:45:23;15.30;;;13.67;;
13279;SDS011;6708;49.814;8.652;2022-11-20T03:47:51;14.93;;;13.37;;
13279;SDS011;6708;49.814;8.652;2022-11-20T03:50:23;15.40;;;13.90;;
13279;SDS011;6708;49.814;8.652;2022-11-20T03:52:51;15.80;;;13.67;;
13279;SDS011;6708;49.814;8.652;2022-11-20T03:55:19;15.47;;;13.53;;
13279;SDS011;6708;49.814;8.652;2022-11-20T03:57:51;14.73;;;12.97;;
13279;SDS011;6708;49.814;8.652;2022-11-20T04:00:19;12.97;;;11.77;;
13279;SDS011;6708;49.814;8.652;2022-11-20T04:02:48;14.73;;;13.23;;
13279;SDS011;6708;49.814;8.652;2022-11-20T04:05:16;14.70;;;13.20;;
13279;SDS011;6708;49.814;8.652;2022-11-20T04:07:48;15.60;;;13.90;;
13279;SDS011;6708;49.814;8.652;2022-11-20T04:10:16;14.37;;;12.87;;
13279;SDS011;6708;49.814;8.652;2022-11-20T04:12:45;16.00;;;13.80;;
13279;SDS011;6708;49.814;8.652;2022-11-20T04:15:14;15.57;;;13.97;;
13279;SDS011;6708;49.814;8.652;2022-11-20T04:17:43;16.00;;;13.43;;
13279;SDS011;6708;49.814;8.652;2022-11-20T04:20:11;14.83;;;13.27;;
13279;SDS011;6708;49.814;8.652;2022-11-20T04:22:40;14.27;;;12.87;;
13279;SDS011;6708;49.814;8.652;2022-11-20T04:25:11;15.43;;;12.90;;
13279;SDS011;6708;49.814;8.652;2022-11-20T04:27:40;13.73;;;12.33;;
13279;SDS011;6708;49.814;8.652;2022-11-20T04:30:09;14.63;;;13.13;;
13279;SDS011;6708;49.814;8.652;2022-11-20T04:32:38;16.87;;;13.57;;
13279;SDS011;6708;49.814;8.652;2022-11-20T04:35:08;14.03;;;12.57;;
13279;SDS011;6708;49.814;8.652;2022-11-20T04:37:36;14.07;;;12.57;;
13279;SDS011;6708;49.814;8.652;2022-11-20T04:40:05;17.30;;;14.60;;
13279;SDS011;6708;49.814;8.652;2022-11-20T04:42:38;17.83;;;14.60;;
13279;SDS011;6708;49.814;8.652;2022-11-20T04:45:07;18.57;;;13.77;;
13279;SDS011;6708;49.814;8.652;2022-11-20T04:47:37;16.40;;;14.37;;
13279;SDS011;6708;49.814;8.652;2022-11-20T04:50:06;15.17;;;13.00;;
13279;SDS011;6708;49.814;8.652;2022-11-20T04:52:35;16.03;;;13.80;;
13279;SDS011;6708;49.814;8.652;2022-11-20T04:55:04;17.10;;;13.73;;
13279;SDS011;6708;49.814;8.652;2022-11-20T04:57:34;16.33;;;13.60;;
13279;SDS011;6708;49.814;8.652;2022-11-20T05:00:06;15.37;;;13.77;;
13279;SDS011;6708;49.814;8.652;2022-11-20T05:02:35;16.37;;;14.17;;
13279;SDS011;6708;49.814;8.652;2022-11-20T05:05:06;15.70;;;14.07;;
13279;SDS011;6708;49.814;8.652;2022-11-20T05:07:35;15.33;;;13.23;;
13279;SDS011;6708;49.814;8.652;2022-11-20T05:10:04;17.83;;;15.43;;
13279;SDS011;6708;49.814;8.652;2022-11-20T05:12:36;18.90;;;14.80;;
13279;SDS011;6708;49.814;8.652;2022-11-20T05:15:07;17.53;;;14.57;;
13279;SDS011;6708;49.814;8.652;2022-11-20T05:17:36;17.97;;;14.57;;
13279;SDS011;6708;49.814;8.652;2022-11-20T05:20:06;16.80;;;14.23;;
13279;SDS011;6708;49.814;8.652;2022-11-20T05:22:36;16.03;;;13.00;;
13279;SDS011;6708;49.814;8.652;2022-11-20T05:25:05;17.27;;;14.80;;
13279;SDS011;6708;49.814;8.652;2022-11-20T05:27:33;15.90;;;14.17;;
13279;SDS011;6708;49.814;8.652;2022-11-20T05:30:02;16.13;;;14.40;;
13279;SDS011;6708;49.814;8.652;2022-11-20T05:32:34;18.90;;;13.73;;
13279;SDS011;6708;49.814;8.652;2022-11-20T05:35:05;14.97;;;13.13;;
13279;SDS011;6708;49.814;8.652;2022-11-20T05:37:34;18.73;;;15.17;;
13279;SDS011;6708;49.814;8.652;2022-11-20T05:40:03;19.10;;;14.77;;
13279;SDS011;6708;49.814;8.652;2022-11-20T05:42:33;17.97;;;15.20;;
13279;SDS011;6708;49.814;8.652;2022-11-20T05:45:02;25.57;;;17.13;;
13279;SDS011;6708;49.814;8.652;2022-11-20T05:47:34;22.30;;;16.77;;
13279;SDS011;6708;49.814;8.652;2022-11-20T05:50:03;17.83;;;15.27;;
13279;SDS011;6708;49.814;8.652;2022-11-20T05:52:32;21.87;;;15.67;;
13279;SDS011;6708;49.814;8.652;2022-11-20T05:55:01;18.43;;;15.50;;
13279;SDS011;6708;49.814;8.652;2022-11-20T05:57:30;19.40;;;16.57;;
13279;SDS011;6708;49.814;8.652;2022-11-20T05:59:59;18.23;;;16.30;;
13279;SDS011;6708;49.814;8.652;2022-11-20T06:02:31;19.43;;;15.33;;
13279;SDS011;6708;49.814;8.652;2022-11-20T06:05:05;19.50;;;15.57;;
13279;SDS011;6708;49.814;8.652;2022-11-20T06:07:34;22.83;;;16.77;;
13279;SDS011;6708;49.814;8.652;2022-11-20T06:10:03;21.87;;;16.90;;
13279;SDS011;6708;49.814;8.652;2022-11-20T06:12:32;26.43;;;17.90;;
13279;SDS011;6708;49.814;8.652;2022-11-20T06:15:03;20.60;;;16.37;;
13279;SDS011;6708;49.814;8.652;2022-11-20T06:17:33;18.43;;;15.00;;
13279;SDS011;6708;49.814;8.652;2022-11-20T06:20:05;16.47;;;14.23;;
13279;SDS011;6708;49.814;8.652;2022-11-20T06:22:34;18.13;;;14.90;;
13279;SDS011;6708;49.814;8.652;2022-11-20T06:25:03;14.83;;;13.20;;
13279;SDS011;6708;49.814;8.652;2022-11-20T06:27:32;17.47;;;14.63;;
13279;SDS011;6708;49.814;8.652;2022-11-20T06:30:00;20.93;;;14.47;;
13279;SDS011;6708;49.814;8.652;2022-11-20T06:32:31;16.70;;;14.53;;
13279;SDS011;6708;49.814;8.652;2022-11-20T06:34:59;17.23;;;15.23;;
13279;SDS011;6708;49.814;8.652;2022-11-20T06:37:30;18.00;;;15.63;;
13279;SDS011;6708;49.814;8.652;2022-11-20T06:39:58;17.50;;;14.53;;
13279;SDS011;6708;49.814;8.652;2022-11-20T06:42:27;18.13;;;15.70;;
13279;SDS011;6708;49.814;8.652;2022-11-20T06:44:55;18.20;;;14.47;;
13279;SDS011;6708;49.814;8.652;2022-11-20T06:47:24;14.13;;;12.73;;
13279;SDS011;6708;49.814;8.652;2022-11-20T06:49:52;16.13;;;14.33;;
13279;SDS011;6708;49.814;8.652;2022-11-20T06:52:21;14.30;;;12.70;;
13279;SDS011;6708;49.814;8.652;2022-11-20T06:54:52;14.23;;;12.13;;
13279;SDS011;6708;49.814;8.652;2022-11-20T06:57:20;13.70;;;12.30;;
13279;SDS011;6708;49.814;8.652;2022-11-20T06:59:49;16.43;;;13.03;;
13279;SDS011;6708;49.814;8.652;2022-11-20T07:02:18;16.87;;;14.00;;
13279;SDS011;6708;49.814;8.652;2022-11-20T07:04:46;14.57;;;13.07;;
13279;SDS011;6708;49.814;8.652;2022-11-20T07:07:15;17.13;;;14.13;;
13279;SDS011;6708;49.814;8.652;2022-11-20T07:09:43;15.13;;;13.40;;
13279;SDS011;6708;49.814;8.652;2022-11-20T07:12:15;13.50;;;12.17;;
13279;SDS011;6708;49.814;8.652;2022-11-20T07:14:43;13.23;;;10.90;;
13279;SDS011;6708;49.814;8.652;2022-11-20T07:17:12;13.37;;;11.90;;
13279;SDS011;6708;49.814;8.652;2022-11-20T07:19:41;13.23;;;11.87;;
13279;SDS011;6708;49.814;8.652;2022-11-20T07:22:10;13.80;;;12.30;;
13279;SDS011;6708;49.814;8.652;2022-11-20T07:24:38;13.63;;;12.23;;
13279;SDS011;6708;49.814;8.652;2022-11-20T07:27:07;14.80;;;13.20;;
13279;SDS011;6708;49.814;8.652;2022-11-20T07:29:38;15.60;;;13.03;;
13279;SDS011;6708;49.814;8.652;2022-11-20T07:32:07;16.17;;;14.10;;
13279;SDS011;6708;49.814;8.652;2022-11-20T07:34:36;15.83;;;13.03;;
13279;SDS011;6708;49.814;8.652;2022-11-20T07:37:04;13.77;;;12.37;;
13279;SDS011;6708;49.814;8.652;2022-11-20T07:39:33;15.73;;;13.53;;
13279;SDS011;6708;49.814;8.652;2022-11-20T07:42:02;13.43;;;11.80;;
13279;SDS011;6708;49.814;8.652;2022-11-20T07:44:30;13.33;;;11.93;;
13279;SDS011;6708;49.814;8.652;2022-11-20T07:47:02;14.17;;;12.67;;
13279;SDS011;6708;49.814;8.652;2022-11-20T07:49:34;13.77;;;12.47;;
13279;SDS011;6708;49.814;8.652;2022-11-20T07:52:03;14.43;;;12.10;;
13279;SDS011;6708;49.814;8.652;2022-11-20T07:54:32;15.40;;;13.30;;
13279;SDS011;6708;49.814;8.652;2022-11-20T07:57:00;14.30;;;12.57;;
13279;SDS011;6708;49.814;8.652;2022-11-20T07:59:29;18.43;;;14.73;;
13279;SDS011;6708;49.814;8.652;2022-11-20T08:01:58;14.20;;;12.77;;
13279;SDS011;6708;49.814;8.652;2022-11-20T08:04:29;14.20;;;12.70;;
13279;SDS011;6708;49.814;8.652;2022-11-20T08:06:58;15.10;;;13.47;;
13279;SDS011;6708;49.814;8.652;2022-11-20T08:09:27;14.30;;;12.60;;
13279;SDS011;6708;49.814;8.652;2022-11-20T08:12:00;17.07;;;12.93;;
13279;SDS011;6708;49.814;8.652;2022-11-20T08:14:40;13.47;;;12.00;;
13279;SDS011;6708;49.814;8.652;2022-11-20T08:17:10;12.77;;;11.57;;
13279;SDS011;6708;49.814;8.652;2022-11-20T08:19:41;13.67;;;12.00;;
13279;SDS011;6708;49.814;8.652;2022-11-20T08:22:11;12.90;;;11.73;;
13279;SDS011;6708;49.814;8.652;2022-11-20T08:24:41;13.93;;;12.63;;
13279;SDS011;6708;49.814;8.652;2022-11-20T08:27:10;12.77;;;11.47;;
13279;SDS011;6708;49.814;8.652;2022-11-20T08:29:38;11.53;;;10.43;;
13279;SDS011;6708;49.814;8.652;2022-11-20T08:32:07;11.80;;;10.80;;
13279;SDS011;6708;49.814;8.652;2022-11-20T08:34:35;13.30;;;10.93;;
13279;SDS011;6708;49.814;8.652;2022-11-20T08:37:06;13.40;;;11.60;;
13279;SDS011;6708;49.814;8.652;2022-11-20T08:39:35;13.67;;;12.27;;
13279;SDS011;6708;49.814;8.652;2022-11-20T08:42:06;13.27;;;11.90;;
13279;SDS011;6708;49.814;8.652;2022-11-20T08:44:34;14.80;;;11.87;;
13279;SDS011;6708;49.814;8.652;2022-11-20T08:47:03;14.20;;;11.17;;
13279;SDS011;6708;49.814;8.652;2022-11-20T08:49:32;11.83;;;10.57;;
13279;SDS011;6708;49.814;8.652;2022-11-20T08:52:02;16.70;;;12.37;;
13279;SDS011;6708;49.814;8.652;2022-11-20T08:54:33;12.43;;;11.13;;
13279;SDS011;6708;49.814;8.652;2022-11-20T08:57:02;14.77;;;12.60;;
13279;SDS011;6708;49.814;8.652;2022-11-20T08:59:30;13.90;;;12.40;;
13279;SDS011;6708;49.814;8.652;2022-11-20T09:01:59;12.83;;;11.53;;
13279;SDS011;6708;49.814;8.652;2022-11-20T09:04:28;12.63;;;11.40;;
13279;SDS011;6708;49.814;8.652;2022-11-20T09:06:56;18.10;;;16.30;;
13279;SDS011;6708;49.814;8.652;2022-11-20T09:09:26;18.47;;;15.80;;
13279;SDS011;6708;49.814;8.652;2022-11-20T09:12:00;22.00;;;18.10;;
13279;SDS011;6708;49.814;8.652;2022-11-20T09:14:41;17.07;;;14.27;;
13279;SDS011;6708;49.814;8.652;2022-11-20T09:17:10;16.23;;;13.97;;
13279;SDS011;6708;49.814;8.652;2022-11-20T09:19:40;16.40;;;12.87;;
13279;SDS011;6708;49.814;8.652;2022-11-20T09:22:08;16.23;;;13.20;;
13279;SDS011;6708;49.814;8.652;2022-11-20T09:24:37;13.10;;;11.73;;
13279;SDS011;6708;49.814;8.652;2022-11-20T09:27:08;12.27;;;11.00;;
13279;SDS011;6708;49.814;8.652;2022-11-20T09:29:37;13.90;;;12.40;;
13279;SDS011;6708;49.814;8.652;2022-11-20T09:32:05;13.60;;;12.07;;
13279;SDS011;6708;49.814;8.652;2022-11-20T09:34:34;13.63;;;12.17;;
13279;SDS011;6708;49.814;8.652;2022-11-20T09:37:02;20.70;;;14.37;;
13279;SDS011;6708;49.814;8.652;2022-11-20T09:39:31;15.83;;;13.43;;
13279;SDS011;6708;49.814;8.652;2022-11-20T09:42:17;12.40;;;11.20;;
13279;SDS011;6708;49.814;8.652;2022-11-20T09:45:02;13.47;;;12.03;;
13279;SDS011;6708;49.814;8.652;2022-11-20T09:47:59;17.77;;;12.47;;
13279;SDS011;6708;49.814;8.652;2022-11-20T09:50:45;12.63;;;11.17;;
13279;SDS011;6708;49.814;8.652;2022-11-20T09:53:20;17.63;;;12.07;;
13279;SDS011;6708;49.814;8.652;2022-11-20T09:56:11;15.30;;;12.43;;
13279;SDS011;6708;49.814;8.652;2022-11-20T10:02:39;15.50;;;13.43;;
13279;SDS011;6708;49.814;8.652;2022-11-20T10:05:25;12.93;;;11.63;;
13279;SDS011;6708;49.814;8.652;2022-11-20T10:07:58;13.17;;;11.77;;
13279;SDS011;6708;49.814;8.652;2022-11-20T10:10:40;15.83;;;12.23;;
13279;SDS011;6708;49.814;8.652;2022-11-20T10:16:09;14.20;;;12.43;;
13279;SDS011;6708;49.814;8.652;2022-11-20T10:18:54;13.50;;;12.30;;
13279;SDS011;6708;49.814;8.652;2022-11-20T10:21:33;14.20;;;12.73;;
13279;SDS011;6708;49.814;8.652;2022-11-20T10:24:14;13.77;;;12.23;;
13279;SDS011;6708;49.814;8.652;2022-11-20T10:26:59;13.30;;;12.07;;
13279;SDS011;6708;49.814;8.652;2022-11-20T10:29:42;13.00;;;11.80;;
13279;SDS011;6708;49.814;8.652;2022-11-20T10:32:35;12.87;;;11.43;;
13279;SDS011;6708;49.814;8.652;2022-11-20T10:35:58;13.97;;;11.53;;
13279;SDS011;6708;49.814;8.652;2022-11-20T10:38:36;15.83;;;13.60;;
13279;SDS011;6708;49.814;8.652;2022-11-20T10:41:06;13.20;;;11.80;;
13279;SDS011;6708;49.814;8.652;2022-11-20T10:43:52;14.13;;;12.60;;
13279;SDS011;6708;49.814;8.652;2022-11-20T10:46:28;14.20;;;12.60;;
13279;SDS011;6708;49.814;8.652;2022-11-20T10:50:02;13.53;;;11.97;;
13279;SDS011;6708;49.814;8.652;2022-11-20T10:53:13;14.57;;;12.93;;
13279;SDS011;6708;49.814;8.652;2022-11-20T10:55:50;13.57;;;12.13;;
13279;SDS011;6708;49.814;8.652;2022-11-20T10:58:30;12.27;;;10.90;;
13279;SDS011;6708;49.814;8.652;2022-11-20T11:01:19;13.57;;;11.93;;
13279;SDS011;6708;49.814;8.652;2022-11-20T11:03:52;12.63;;;11.27;;
13279;SDS011;6708;49.814;8.652;2022-11-20T11:06:24;13.80;;;11.57;;
13279;SDS011;6708;49.814;8.652;2022-11-20T11:11:48;12.43;;;11.07;;
13279;SDS011;6708;49.814;8.652;2022-11-20T11:14:41;15.47;;;11.27;;
13279;SDS011;6708;49.814;8.652;2022-11-20T11:17:35;13.13;;;11.87;;
13279;SDS011;6708;49.814;8.652;2022-11-20T11:20:05;13.80;;;12.37;;
13279;SDS011;6708;49.814;8.652;2022-11-20T11:22:54;15.50;;;12.90;;
13279;SDS011;6708;49.814;8.652;2022-11-20T11:25:27;15.47;;;12.37;;
13279;SDS011;6708;49.814;8.652;2022-11-20T11:28:00;16.13;;;13.30;;
13279;SDS011;6708;49.814;8.652;2022-11-20T11:30:40;15.60;;;13.37;;
13279;SDS011;6708;49.814;8.652;2022-11-20T11:33:18;14.10;;;12.57;;
13279;SDS011;6708;49.814;8.652;2022-11-20T11:35:49;13.50;;;11.57;;
13279;SDS011;6708;49.814;8.652;2022-11-20T11:38:26;15.40;;;12.20;;
13279;SDS011;6708;49.814;8.652;2022-11-20T11:41:03;12.63;;;11.33;;
13279;SDS011;6708;49.814;8.652;2022-11-20T11:43:32;12.63;;;11.27;;
13279;SDS011;6708;49.814;8.652;2022-11-20T11:46:30;20.77;;;11.77;;
13279;SDS011;6708;49.814;8.652;2022-11-20T11:49:14;13.50;;;12.20;;
13279;SDS011;6708;49.814;8.652;2022-11-20T11:51:54;14.17;;;12.73;;
13279;SDS011;6708;49.814;8.652;2022-11-20T11:54:31;14.50;;;12.97;;
13279;SDS011;6708;49.814;8.652;2022-11-20T11:57:09;17.80;;;14.63;;
13279;SDS011;6708;49.814;8.652;2022-11-20T11:59:54;17.13;;;14.87;;
13279;SDS011;6708;49.814;8.652;2022-11-20T12:02:35;13.17;;;11.67;;
13279;SDS011;6708;49.814;8.652;2022-11-20T12:05:17;14.50;;;11.87;;
13279;SDS011;6708;49.814;8.652;2022-11-20T12:07:49;13.27;;;11.33;;
13279;SDS011;6708;49.814;8.652;2022-11-20T12:10:20;12.60;;;10.80;;
13279;SDS011;6708;49.814;8.652;2022-11-20T12:16:17;12.23;;;11.00;;
13279;SDS011;6708;49.814;8.652;2022-11-20T12:18:48;13.43;;;12.17;;
13279;SDS011;6708;49.814;8.652;2022-11-20T12:21:18;14.27;;;11.40;;
13279;SDS011;6708;49.814;8.652;2022-11-20T12:23:55;14.00;;;12.50;;
13279;SDS011;6708;49.814;8.652;2022-11-20T12:26:44;12.87;;;11.57;;
13279;SDS011;6708;49.814;8.652;2022-11-20T12:29:25;16.73;;;12.57;;
13279;SDS011;6708;49.814;8.652;2022-11-20T12:38:07;13.87;;;11.43;;
13279;SDS011;6708;49.814;8.652;2022-11-20T12:40:48;13.00;;;11.60;;
13279;SDS011;6708;49.814;8.652;2022-11-20T12:43:22;12.57;;;11.27;;
13279;SDS011;6708;49.814;8.652;2022-11-20T12:46:16;11.43;;;10.33;;
13279;SDS011;6708;49.814;8.652;2022-11-20T12:49:00;12.00;;;10.80;;
13279;SDS011;6708;49.814;8.652;2022-11-20T12:51:50;13.50;;;10.30;;
13279;SDS011;6708;49.814;8.652;2022-11-20T12:57:19;11.67;;;10.43;;
13279;SDS011;6708;49.814;8.652;2022-11-20T12:59:59;12.00;;;10.80;;
13279;SDS011;6708;49.814;8.652;2022-11-20T13:02:33;16.40;;;13.73;;
13279;SDS011;6708;49.814;8.652;2022-11-20T13:05:18;14.30;;;12.80;;
13279;SDS011;6708;49.814;8.652;2022-11-20T13:10:51;11.23;;;10.20;;
13279;SDS011;6708;49.814;8.652;2022-11-20T13:16:33;10.87;;;9.63;;
13279;SDS011;6708;49.814;8.652;2022-11-20T13:19:44;11.00;;;9.40;;
13279;SDS011;6708;49.814;8.652;2022-11-20T13:22:25;11.13;;;10.03;;
13279;SDS011;6708;49.814;8.652;2022-11-20T13:24:56;10.63;;;9.70;;
13279;SDS011;6708;49.814;8.652;2022-11-20T13:27:25;12.17;;;10.87;;
13279;SDS011;6708;49.814;8.652;2022-11-20T13:29:59;11.10;;;10.10;;
13279;SDS011;6708;49.814;8.652;2022-11-20T13:32:51;11.50;;;10.27;;
13279;SDS011;6708;49.814;8.652;2022-11-20T13:35:25;11.10;;;10.00;;
13279;SDS011;6708;49.814;8.652;2022-11-20T13:38:07;10.47;;;9.47;;
13279;SDS011;6708;49.814;8.652;2022-11-20T13:40:50;10.93;;;8.87;;
13279;SDS011;6708;49.814;8.652;2022-11-20T13:43:26;9.67;;;8.77;;
13279;SDS011;6708;49.814;8.652;2022-11-20T13:45:59;10.37;;;9.37;;
13279;SDS011;6708;49.814;8.652;2022-11-20T13:48:30;9.50;;;8.60;;
13279;SDS011;6708;49.814;8.652;2022-11-20T13:54:03;8.80;;;8.03;;
13279;SDS011;6708;49.814;8.652;2022-11-20T13:56:43;9.07;;;8.27;;
13279;SDS011;6708;49.814;8.652;2022-11-20T13:59:26;9.10;;;8.20;;
13279;SDS011;6708;49.814;8.652;2022-11-20T14:02:00;9.20;;;7.97;;
13279;SDS011;6708;49.814;8.652;2022-11-20T14:04:30;8.53;;;7.60;;
13279;SDS011;6708;49.814;8.652;2022-11-20T14:07:04;7.63;;;7.03;;
13279;SDS011;6708;49.814;8.652;2022-11-20T14:09:34;7.20;;;6.60;;
13279;SDS011;6708;49.814;8.652;2022-11-20T14:12:18;7.93;;;7.33;;
13279;SDS011;6708;49.814;8.652;2022-11-20T14:14:49;8.00;;;7.30;;
13279;SDS011;6708;49.814;8.652;2022-11-20T14:17:20;8.47;;;7.70;;
13279;SDS011;6708;49.814;8.652;2022-11-20T14:19:51;6.80;;;6.30;;
13279;SDS011;6708;49.814;8.652;2022-11-20T14:22:21;7.97;;;7.27;;
13279;SDS011;6708;49.814;8.652;2022-11-20T14:25:00;7.10;;;6.60;;
13279;SDS011;6708;49.814;8.652;2022-11-20T14:27:35;8.00;;;7.20;;
13279;SDS011;6708;49.814;8.652;2022-11-20T14:30:06;7.53;;;6.80;;
13279;SDS011;6708;49.814;8.652;2022-11-20T14:32:41;8.70;;;7.00;;
13279;SDS011;6708;49.814;8.652;2022-11-20T14:35:13;6.37;;;5.80;;
13279;SDS011;6708;49.814;8.652;2022-11-20T14:37:48;6.70;;;6.17;;
13279;SDS011;6708;49.814;8.652;2022-11-20T14:40:24;5.93;;;5.50;;
13279;SDS011;6708;49.814;8.652;2022-11-20T14:42:58;7.10;;;6.00;;
13279;SDS011;6708;49.814;8.652;2022-11-20T14:45:27;10.63;;;7.67;;
13279;SDS011;6708;49.814;8.652;2022-11-20T14:47:57;7.27;;;6.47;;
13279;SDS011;6708;49.814;8.652;2022-11-20T14:50:27;5.43;;;5.00;;
13279;SDS011;6708;49.814;8.652;2022-11-20T14:52:56;4.67;;;4.27;;
13279;SDS011;6708;49.814;8.652;2022-11-20T14:55:30;4.80;;;4.40;;
13279;SDS011;6708;49.814;8.652;2022-11-20T14:58:03;5.10;;;4.10;;
13279;SDS011;6708;49.814;8.652;2022-11-20T15:00:33;4.50;;;4.07;;
13279;SDS011;6708;49.814;8.652;2022-11-20T15:03:03;4.57;;;4.27;;
13279;SDS011;6708;49.814;8.652;2022-11-20T15:05:46;5.13;;;4.23;;
13279;SDS011;6708;49.814;8.652;2022-11-20T15:08:16;5.93;;;4.20;;
13279;SDS011;6708;49.814;8.652;2022-11-20T15:10:45;4.80;;;4.43;;
13279;SDS011;6708;49.814;8.652;2022-11-20T15:13:19;4.80;;;4.37;;
13279;SDS011;6708;49.814;8.652;2022-11-20T15:15:54;4.63;;;4.20;;
13279;SDS011;6708;49.814;8.652;2022-11-20T15:18:26;4.97;;;4.57;;
13279;SDS011;6708;49.814;8.652;2022-11-20T15:20:56;5.07;;;4.67;;
13279;SDS011;6708;49.814;8.652;2022-11-20T15:23:31;5.17;;;4.60;;
13279;SDS011;6708;49.814;8.652;2022-11-20T15:26:04;4.90;;;4.50;;
13279;SDS011;6708;49.814;8.652;2022-11-20T15:28:36;4.03;;;3.73;;
13279;SDS011;6708;49.814;8.652;2022-11-20T15:31:06;4.63;;;4.20;;
13279;SDS011;6708;49.814;8.652;2022-11-20T15:33:37;4.60;;;3.97;;
13279;SDS011;6708;49.814;8.652;2022-11-20T15:36:06;3.97;;;3.67;;
13279;SDS011;6708;49.814;8.652;2022-11-20T15:38:39;3.80;;;3.50;;
13279;SDS011;6708;49.814;8.652;2022-11-20T15:41:10;3.43;;;3.23;;
13279;SDS011;6708;49.814;8.652;2022-11-20T15:43:45;3.57;;;3.27;;
13279;SDS011;6708;49.814;8.652;2022-11-20T15:46:15;5.07;;;3.40;;